sensor_id;sensor_type;location;lat;lon;timestamp;P1;durP1;ratioP1;P2;durP2;ratioP2
29162;SDS011;20331;53.144;8.208;2022-11-20T00:06:25;19.08;;;10.18;;
29162;SDS011;20331;53.144;8.208;2022-11-20T00:16:47;21.15;;;9.85;;
29162;SDS011;20331;53.144;8.208;2022-11-20T00:27:09;15.93;;;8.20;;
29162;SDS011;20331;53.144;8.208;2022-11-20T00:37:30;15.20;;;8.97;;
29162;SDS011;20331;53.144;8.208;2022-11-20T00:47:52;22.23;;;9.73;;
29162;SDS011;20331;53.144;8.208;2022-11-20T00:58:13;20.03;;;9.57;;
29162;SDS011;20331;53.144;8.208;2022-11-20T01:08:35;16.57;;;9.00;;
29162;SDS011;20331;53.144;8.208;2022-11-20T01:18:58;17.05;;;9.38;;
29162;SDS011;20331;53.144;8.208;2022-11-20T01:29:24;14.02;;;8.68;;
29162;SDS011;20331;53.144;8.208;2022-11-20T01:39:46;14.15;;;8.15;;
29162;SDS011;20331;53.144;8.208;2022-11-20T01:50:18;14.70;;;6.73;;
29162;SDS011;20331;53.144;8.208;2022-11-20T02:00:45;14.18;;;8.85;;
29162;SDS011;20331;53.144;8.208;2022-11-20T02:11:07;15.17;;;8.53;;
29162;SDS011;20331;53.144;8.208;2022-11-20T02:32:21;15.82;;;8.50;;
29162;SDS011;20331;53.144;8.208;2022-11-20T02:42:46;19.85;;;7.70;;
29162;SDS011;20331;53.144;8.208;2022-11-20T03:03:30;12.93;;;7.37;;
29162;SDS011;20331;53.144;8.208;2022-11-20T03:13:51;12.73;;;7.23;;
29162;SDS011;20331;53.144;8.208;2022-11-20T03:24:14;13.43;;;7.07;;
29162;SDS011;20331;53.144;8.208;2022-11-20T03:34:36;13.70;;;7.32;;
29162;SDS011;20331;53.144;8.208;2022-11-20T03:44:57;11.27;;;6.67;;
29162;SDS011;20331;53.144;8.208;2022-11-20T03:55:19;13.55;;;7.55;;
29162;SDS011;20331;53.144;8.208;2022-11-20T04:05:40;11.67;;;6.63;;
29162;SDS011;20331;53.144;8.208;2022-11-20T04:16:02;12.67;;;6.70;;
29162;SDS011;20331;53.144;8.208;2022-11-20T04:36:46;12.40;;;5.80;;
29162;SDS011;20331;53.144;8.208;2022-11-20T04:47:07;11.77;;;5.13;;
29162;SDS011;20331;53.144;8.208;2022-11-20T04:57:29;10.07;;;5.60;;
29162;SDS011;20331;53.144;8.208;2022-11-20T05:07:50;11.13;;;6.10;;
29162;SDS011;20331;53.144;8.208;2022-11-20T05:18:12;11.23;;;6.50;;
29162;SDS011;20331;53.144;8.208;2022-11-20T05:28:33;10.70;;;6.47;;
29162;SDS011;20331;53.144;8.208;2022-11-20T05:38:55;10.68;;;6.55;;
29162;SDS011;20331;53.144;8.208;2022-11-20T05:49:21;13.73;;;7.20;;
29162;SDS011;20331;53.144;8.208;2022-11-20T05:59:46;11.80;;;6.32;;
29162;SDS011;20331;53.144;8.208;2022-11-20T06:10:07;12.97;;;7.03;;
29162;SDS011;20331;53.144;8.208;2022-11-20T06:20:29;11.13;;;7.07;;
29162;SDS011;20331;53.144;8.208;2022-11-20T06:30:50;11.90;;;7.03;;
29162;SDS011;20331;53.144;8.208;2022-11-20T06:41:13;12.33;;;7.13;;
29162;SDS011;20331;53.144;8.208;2022-11-20T06:51:36;12.52;;;7.45;;
29162;SDS011;20331;53.144;8.208;2022-11-20T07:01:59;13.15;;;7.70;;
29162;SDS011;20331;53.144;8.208;2022-11-20T07:12:20;13.63;;;8.03;;
29162;SDS011;20331;53.144;8.208;2022-11-20T07:22:45;13.90;;;7.93;;
29162;SDS011;20331;53.144;8.208;2022-11-20T07:33:07;13.85;;;8.00;;
29162;SDS011;20331;53.144;8.208;2022-11-20T07:43:28;14.00;;;8.00;;
29162;SDS011;20331;53.144;8.208;2022-11-20T07:53:51;15.63;;;8.77;;
29162;SDS011;20331;53.144;8.208;2022-11-20T08:04:13;16.00;;;8.95;;
29162;SDS011;20331;53.144;8.208;2022-11-20T08:14:37;13.57;;;8.80;;
29162;SDS011;20331;53.144;8.208;2022-11-20T08:24:58;14.70;;;9.23;;
29162;SDS011;20331;53.144;8.208;2022-11-20T08:35:20;15.53;;;8.47;;
29162;SDS011;20331;53.144;8.208;2022-11-20T08:45:42;15.77;;;9.52;;
29162;SDS011;20331;53.144;8.208;2022-11-20T08:56:04;19.02;;;10.38;;
29162;SDS011;20331;53.144;8.208;2022-11-20T09:06:26;17.23;;;9.02;;
29162;SDS011;20331;53.144;8.208;2022-11-20T09:16:50;15.13;;;9.20;;
29162;SDS011;20331;53.144;8.208;2022-11-20T09:27:12;13.50;;;8.57;;
29162;SDS011;20331;53.144;8.208;2022-11-20T09:37:33;13.27;;;8.23;;
29162;SDS011;20331;53.144;8.208;2022-11-20T09:48:03;13.85;;;8.02;;
29162;SDS011;20331;53.144;8.208;2022-11-20T09:58:43;13.73;;;8.30;;
29162;SDS011;20331;53.144;8.208;2022-11-20T10:30:34;12.75;;;7.25;;
29162;SDS011;20331;53.144;8.208;2022-11-20T10:41:01;14.15;;;7.63;;
29162;SDS011;20331;53.144;8.208;2022-11-20T11:13:21;11.93;;;6.07;;
29162;SDS011;20331;53.144;8.208;2022-11-20T11:23:44;12.07;;;6.18;;
29162;SDS011;20331;53.144;8.208;2022-11-20T11:34:12;11.70;;;6.53;;
29162;SDS011;20331;53.144;8.208;2022-11-20T11:44:37;9.60;;;5.75;;
29162;SDS011;20331;53.144;8.208;2022-11-20T12:06:11;10.95;;;5.93;;
29162;SDS011;20331;53.144;8.208;2022-11-20T12:16:36;8.50;;;4.20;;
29162;SDS011;20331;53.144;8.208;2022-11-20T12:27:23;10.23;;;6.38;;
29162;SDS011;20331;53.144;8.208;2022-11-20T13:10:11;12.20;;;6.13;;
29162;SDS011;20331;53.144;8.208;2022-11-20T13:20:43;8.27;;;5.57;;
29162;SDS011;20331;53.144;8.208;2022-11-20T13:31:09;9.43;;;5.47;;
29162;SDS011;20331;53.144;8.208;2022-11-20T13:41:53;9.90;;;5.40;;
29162;SDS011;20331;53.144;8.208;2022-11-20T14:13:26;10.32;;;6.10;;
29162;SDS011;20331;53.144;8.208;2022-11-20T14:23:47;12.07;;;5.60;;
29162;SDS011;20331;53.144;8.208;2022-11-20T14:34:15;9.90;;;5.67;;
29162;SDS011;20331;53.144;8.208;2022-11-20T14:44:41;9.05;;;5.63;;
29162;SDS011;20331;53.144;8.208;2022-11-20T14:55:04;14.40;;;6.60;;
29162;SDS011;20331;53.144;8.208;2022-11-20T15:05:37;10.98;;;6.97;;
29162;SDS011;20331;53.144;8.208;2022-11-20T15:16:24;10.95;;;6.30;;
29162;SDS011;20331;53.144;8.208;2022-11-20T15:26:47;9.90;;;6.50;;
29162;SDS011;20331;53.144;8.208;2022-11-20T15:37:09;11.57;;;6.87;;
29162;SDS011;20331;53.144;8.208;2022-11-20T15:47:31;12.57;;;7.20;;
29162;SDS011;20331;53.144;8.208;2022-11-20T15:57:55;15.57;;;8.15;;
29162;SDS011;20331;53.144;8.208;2022-11-20T16:08:16;12.17;;;7.30;;
29162;SDS011;20331;53.144;8.208;2022-11-20T16:18:38;13.20;;;7.23;;
29162;SDS011;20331;53.144;8.208;2022-11-20T16:29:00;12.80;;;7.20;;
29162;SDS011;20331;53.144;8.208;2022-11-20T16:39:24;15.63;;;7.82;;
29162;SDS011;20331;53.144;8.208;2022-11-20T16:49:46;15.77;;;8.32;;
29162;SDS011;20331;53.144;8.208;2022-11-20T17:00:07;15.23;;;8.23;;
29162;SDS011;20331;53.144;8.208;2022-11-20T17:10:29;20.67;;;10.63;;
29162;SDS011;20331;53.144;8.208;2022-11-20T17:20:54;16.40;;;9.45;;
29162;SDS011;20331;53.144;8.208;2022-11-20T17:31:15;17.20;;;9.13;;
29162;SDS011;20331;53.144;8.208;2022-11-20T17:41:37;12.38;;;7.88;;
29162;SDS011;20331;53.144;8.208;2022-11-20T17:51:59;12.83;;;8.03;;
29162;SDS011;20331;53.144;8.208;2022-11-20T18:02:20;15.07;;;8.80;;
29162;SDS011;20331;53.144;8.208;2022-11-20T18:12:45;11.82;;;7.53;;
29162;SDS011;20331;53.144;8.208;2022-11-20T18:23:06;11.87;;;7.13;;
29162;SDS011;20331;53.144;8.208;2022-11-20T18:33:28;15.47;;;8.30;;
29162;SDS011;20331;53.144;8.208;2022-11-20T18:43:51;15.13;;;8.70;;
29162;SDS011;20331;53.144;8.208;2022-11-20T18:54:33;20.67;;;9.68;;
29162;SDS011;20331;53.144;8.208;2022-11-20T19:04:55;15.95;;;10.23;;
29162;SDS011;20331;53.144;8.208;2022-11-20T19:15:17;16.33;;;10.33;;
29162;SDS011;20331;53.144;8.208;2022-11-20T19:25:39;19.33;;;10.15;;
29162;SDS011;20331;53.144;8.208;2022-11-20T19:36:07;20.10;;;10.70;;
29162;SDS011;20331;53.144;8.208;2022-11-20T19:46:31;18.48;;;9.82;;
29162;SDS011;20331;53.144;8.208;2022-11-20T19:56:54;20.83;;;10.65;;
29162;SDS011;20331;53.144;8.208;2022-11-20T20:07:18;15.52;;;8.82;;
29162;SDS011;20331;53.144;8.208;2022-11-20T20:17:40;15.55;;;8.48;;
29162;SDS011;20331;53.144;8.208;2022-11-20T20:28:01;19.10;;;10.70;;
29162;SDS011;20331;53.144;8.208;2022-11-20T20:38:23;19.60;;;10.43;;
29162;SDS011;20331;53.144;8.208;2022-11-20T20:48:44;19.13;;;10.17;;
29162;SDS011;20331;53.144;8.208;2022-11-20T20:59:13;16.88;;;9.93;;
29162;SDS011;20331;53.144;8.208;2022-11-20T21:09:34;19.97;;;11.70;;
29162;SDS011;20331;53.144;8.208;2022-11-20T21:19:56;23.40;;;11.33;;
29162;SDS011;20331;53.144;8.208;2022-11-20T21:30:17;19.30;;;10.97;;
29162;SDS011;20331;53.144;8.208;2022-11-20T21:40:39;18.87;;;10.33;;
29162;SDS011;20331;53.144;8.208;2022-11-20T21:51:04;25.17;;;11.70;;
29162;SDS011;20331;53.144;8.208;2022-11-20T22:01:30;20.52;;;10.20;;
29162;SDS011;20331;53.144;8.208;2022-11-20T22:11:52;18.77;;;10.30;;
29162;SDS011;20331;53.144;8.208;2022-11-20T22:22:14;19.53;;;10.97;;
29162;SDS011;20331;53.144;8.208;2022-11-20T22:32:35;16.70;;;10.33;;
29162;SDS011;20331;53.144;8.208;2022-11-20T22:42:57;22.30;;;11.00;;
29162;SDS011;20331;53.144;8.208;2022-11-20T22:53:18;20.27;;;11.27;;
29162;SDS011;20331;53.144;8.208;2022-11-20T23:03:41;19.63;;;11.03;;
29162;SDS011;20331;53.144;8.208;2022-11-20T23:14:05;23.38;;;12.88;;
29162;SDS011;20331;53.144;8.208;2022-11-20T23:24:28;24.63;;;12.13;;
29162;SDS011;20331;53.144;8.208;2022-11-20T23:34:50;23.97;;;12.30;;
29162;SDS011;20331;53.144;8.208;2022-11-20T23:45:11;20.83;;;11.73;;
29162;SDS011;20331;53.144;8.208;2022-11-20T23:55:33;19.27;;;11.87;;
